Time;durP1;ratioP1;P1;durP2;ratioP2;P2;SDS_P1;SDS_P2;PMS_P1;PMS_P2;Temp;Humidity;BMP_temperature;BMP_pressure;BME280_temperature;BME280_humidity;BME280_pressure;Samples;Min_cycle;Max_cycle;Signal;HPM_P1;HPM_P2
2021/05/17 00:00:32;;;;;;;5.60;2.30;;;;;;;;;;4975758;28;20113;-73
2021/05/17 00:02:59;;;;;;;6.53;2.70;;;;;;;;;;4996433;28;20117;-73
2021/05/17 00:05:25;;;;;;;5.65;2.53;;;;;;;;;;4996437;28;20116;-73
2021/05/17 00:07:52;;;;;;;7.88;3.25;;;;;;;;;;4981129;28;20026;-73
2021/05/17 00:10:18;;;;;;;4.22;2.63;;;;;;;;;;4975999;28;20157;-73
2021/05/17 00:12:44;;;;;;;4.60;3.15;;;;;;;;;;4995339;28;20034;-72
2021/05/17 00:15:14;;;;;;;8.15;4.05;;;;;;;;;;4998785;28;20027;-72
2021/05/17 00:17:41;;;;;;;7.50;3.67;;;;;;;;;;4994923;28;20088;-72
2021/05/17 00:20:08;;;;;;;6.70;3.53;;;;;;;;;;4997800;28;20015;-72
2021/05/17 00:22:35;;;;;;;6.28;3.83;;;;;;;;;;4981108;28;20034;-73
2021/05/17 00:25:01;;;;;;;8.90;5.50;;;;;;;;;;5002302;28;20050;-72
2021/05/17 00:27:27;;;;;;;7.63;5.05;;;;;;;;;;4989215;28;20064;-72
2021/05/17 00:29:53;;;;;;;7.05;5.18;;;;;;;;;;4995220;28;20019;-72
2021/05/17 00:32:19;;;;;;;6.13;5.40;;;;;;;;;;4995009;28;20034;-72
2021/05/17 00:34:46;;;;;;;6.78;4.63;;;;;;;;;;4997962;28;20081;-72
2021/05/17 00:37:12;;;;;;;7.43;4.93;;;;;;;;;;4978818;28;20018;-72
2021/05/17 00:39:38;;;;;;;7.55;4.50;;;;;;;;;;4995014;28;20526;-72
2021/05/17 00:42:05;;;;;;;7.75;3.65;;;;;;;;;;5000577;28;20026;-72
2021/05/17 00:44:31;;;;;;;8.48;4.22;;;;;;;;;;5002854;28;20027;-72
2021/05/17 00:46:58;;;;;;;5.75;3.33;;;;;;;;;;4997241;28;20026;-72
2021/05/17 00:49:23;;;;;;;5.70;3.30;;;;;;;;;;4998208;28;20030;-72
2021/05/17 00:51:50;;;;;;;5.75;2.88;;;;;;;;;;4973043;28;20599;-72
2021/05/17 00:54:16;;;;;;;3.63;2.38;;;;;;;;;;5001750;28;20026;-72
2021/05/17 00:56:42;;;;;;;4.32;2.80;;;;;;;;;;4995990;28;20165;-73
2021/05/17 00:59:08;;;;;;;8.10;2.45;;;;;;;;;;4994176;28;20049;-72
2021/05/17 01:01:35;;;;;;;4.28;2.30;;;;;;;;;;5001041;28;20076;-72
2021/05/17 01:04:01;;;;;;;4.80;3.03;;;;;;;;;;4991639;28;20081;-72
2021/05/17 01:06:29;;;;;;;8.15;2.30;;;;;;;;;;4991593;28;20023;-72
2021/05/17 01:08:59;;;;;;;3.58;2.25;;;;;;;;;;4991653;28;20504;-72
2021/05/17 01:11:27;;;;;;;5.05;2.83;;;;;;;;;;4994397;28;20523;-72
2021/05/17 01:13:55;;;;;;;4.10;2.58;;;;;;;;;;4991319;28;20018;-72
2021/05/17 01:16:22;;;;;;;4.35;2.00;;;;;;;;;;4991287;28;20105;-72
2021/05/17 01:18:48;;;;;;;4.72;2.50;;;;;;;;;;4983653;28;20112;-72
2021/05/17 01:21:17;;;;;;;6.28;2.80;;;;;;;;;;4991181;28;20509;-72
2021/05/17 01:23:54;;;;;;;5.57;3.03;;;;;;;;;;4984163;28;20113;-72
2021/05/17 01:26:21;;;;;;;3.22;2.28;;;;;;;;;;4991200;28;20062;-72
2021/05/17 01:28:48;;;;;;;5.85;3.03;;;;;;;;;;4990424;28;20026;-72
2021/05/17 01:31:15;;;;;;;4.05;2.78;;;;;;;;;;4990696;28;20026;-72
2021/05/17 01:33:42;;;;;;;6.65;3.92;;;;;;;;;;4990138;28;20027;-72
2021/05/17 01:36:09;;;;;;;7.05;3.10;;;;;;;;;;4990232;28;20018;-72
2021/05/17 01:38:37;;;;;;;6.72;3.50;;;;;;;;;;4990773;28;20018;-72
2021/05/17 01:41:10;;;;;;;8.52;3.70;;;;;;;;;;4990395;28;20030;-72
2021/05/17 01:43:44;;;;;;;7.78;4.43;;;;;;;;;;4990651;28;20104;-72
2021/05/17 01:46:12;;;;;;;9.65;4.60;;;;;;;;;;4998566;28;20038;-72
2021/05/17 01:48:40;;;;;;;7.93;4.32;;;;;;;;;;4990687;28;20105;-72
2021/05/17 01:51:15;;;;;;;6.90;4.93;;;;;;;;;;4979887;28;20109;-72
2021/05/17 01:53:42;;;;;;;12.52;5.05;;;;;;;;;;4996268;28;20050;-72
2021/05/17 01:56:09;;;;;;;6.78;4.80;;;;;;;;;;4977166;28;20015;-72
2021/05/17 01:58:36;;;;;;;9.57;5.50;;;;;;;;;;4990823;28;20026;-72
2021/05/17 02:01:03;;;;;;;9.25;5.85;;;;;;;;;;4990144;28;20046;-72
2021/05/17 02:03:29;;;;;;;10.55;5.85;;;;;;;;;;4982511;28;20084;-72
2021/05/17 02:05:55;;;;;;;9.20;6.47;;;;;;;;;;4990787;28;20022;-72
2021/05/17 02:08:22;;;;;;;9.90;6.88;;;;;;;;;;4976741;28;21305;-72
2021/05/17 02:10:48;;;;;;;9.85;6.97;;;;;;;;;;4976184;28;20110;-72
2021/05/17 02:13:18;;;;;;;10.93;8.02;;;;;;;;;;4988813;28;20015;-72
2021/05/17 02:15:44;;;;;;;10.65;8.13;;;;;;;;;;4988741;28;20065;-72
2021/05/17 02:18:10;;;;;;;13.05;7.78;;;;;;;;;;4995577;28;20026;-72
2021/05/17 02:20:38;;;;;;;11.35;8.13;;;;;;;;;;4972421;28;20022;-72
2021/05/17 02:23:05;;;;;;;14.20;7.60;;;;;;;;;;4989880;28;20026;-72
2021/05/17 02:25:31;;;;;;;10.98;7.25;;;;;;;;;;4990115;28;20022;-72
2021/05/17 02:27:57;;;;;;;13.77;8.55;;;;;;;;;;4984319;28;20098;-72
2021/05/17 02:30:24;;;;;;;15.75;9.20;;;;;;;;;;5002792;28;20058;-72
2021/05/17 02:32:50;;;;;;;13.23;7.85;;;;;;;;;;4989777;28;20222;-72
2021/05/17 02:35:17;;;;;;;13.30;8.80;;;;;;;;;;4975773;28;20030;-72
2021/05/17 02:37:42;;;;;;;15.02;8.90;;;;;;;;;;4979756;28;20022;-72
2021/05/17 02:40:09;;;;;;;13.13;8.20;;;;;;;;;;4976246;28;20034;-72
2021/05/17 02:42:36;;;;;;;16.20;9.75;;;;;;;;;;4993587;28;20034;-72
2021/05/17 02:45:05;;;;;;;13.00;8.15;;;;;;;;;;4994038;28;20488;-72
2021/05/17 02:47:33;;;;;;;16.95;9.30;;;;;;;;;;4992820;28;20030;-72
2021/05/17 02:49:59;;;;;;;14.40;9.00;;;;;;;;;;4992592;28;20088;-72
2021/05/17 02:52:29;;;;;;;13.82;9.23;;;;;;;;;;4993688;28;20034;-72
2021/05/17 02:54:58;;;;;;;15.80;9.95;;;;;;;;;;4989957;28;20022;-72
2021/05/17 02:57:36;;;;;;;15.25;9.73;;;;;;;;;;4991924;28;20408;-72
2021/05/17 03:00:12;;;;;;;18.63;11.70;;;;;;;;;;4990570;28;20365;-71
2021/05/17 03:03:04;;;;;;;19.42;11.15;;;;;;;;;;4998035;28;20022;-72
2021/05/17 03:05:36;;;;;;;15.30;10.98;;;;;;;;;;4984277;28;20038;-72
2021/05/17 03:08:09;;;;;;;23.85;11.40;;;;;;;;;;4975604;28;20033;-72
2021/05/17 03:10:37;;;;;;;17.67;11.45;;;;;;;;;;4976178;28;20026;-72
2021/05/17 03:13:13;;;;;;;16.90;11.98;;;;;;;;;;4976076;28;20089;-72
2021/05/17 03:15:40;;;;;;;15.38;11.02;;;;;;;;;;4993055;28;20010;-72
2021/05/17 03:18:06;;;;;;;17.85;11.40;;;;;;;;;;4993391;28;20077;-72
2021/05/17 03:20:33;;;;;;;21.85;12.00;;;;;;;;;;4993288;28;20469;-72
2021/05/17 03:22:59;;;;;;;20.23;12.60;;;;;;;;;;4977640;28;20447;-71
2021/05/17 03:25:36;;;;;;;20.60;12.13;;;;;;;;;;4975076;28;20030;-71
2021/05/17 03:28:02;;;;;;;19.23;12.45;;;;;;;;;;4992252;28;20384;-71
2021/05/17 03:30:28;;;;;;;20.98;12.30;;;;;;;;;;4998509;28;20077;-72
2021/05/17 03:32:54;;;;;;;19.42;12.82;;;;;;;;;;4987576;28;20068;-72
2021/05/17 03:35:20;;;;;;;22.55;12.98;;;;;;;;;;4999147;28;20429;-71
2021/05/17 03:37:47;;;;;;;24.35;13.00;;;;;;;;;;5000954;28;20061;-72
2021/05/17 03:40:13;;;;;;;21.88;12.77;;;;;;;;;;5002604;28;20026;-72
2021/05/17 03:42:39;;;;;;;19.20;12.68;;;;;;;;;;4992842;28;20014;-72
2021/05/17 03:45:06;;;;;;;27.58;13.20;;;;;;;;;;4977349;28;20459;-72
2021/05/17 03:47:32;;;;;;;20.27;12.48;;;;;;;;;;4977519;28;20042;-72
2021/05/17 03:49:58;;;;;;;20.23;13.60;;;;;;;;;;4996763;28;20114;-72
2021/05/17 03:52:24;;;;;;;20.00;12.50;;;;;;;;;;4995375;28;20109;-72
2021/05/17 03:54:50;;;;;;;23.42;12.65;;;;;;;;;;4992923;28;20050;-73
2021/05/17 03:57:16;;;;;;;19.23;11.63;;;;;;;;;;4992011;28;20053;-71
2021/05/17 03:59:45;;;;;;;20.20;11.80;;;;;;;;;;4982079;28;20057;-72
2021/05/17 04:02:11;;;;;;;20.00;12.23;;;;;;;;;;4999784;28;20022;-72
2021/05/17 04:04:47;;;;;;;20.95;11.98;;;;;;;;;;4993464;28;20022;-72
2021/05/17 04:15:21;;;;;;;19.63;11.95;;;;;;;;;;5002748;28;20037;-72
2021/05/17 04:17:47;;;;;;;21.73;11.85;;;;;;;;;;5003487;28;20026;-72
2021/05/17 04:20:13;;;;;;;18.80;12.15;;;;;;;;;;5001718;28;20400;-72
2021/05/17 04:22:39;;;;;;;17.15;11.70;;;;;;;;;;5002752;28;20041;-72
2021/05/17 04:25:05;;;;;;;17.92;12.02;;;;;;;;;;4998397;28;20029;-72
2021/05/17 04:27:31;;;;;;;21.63;12.30;;;;;;;;;;5002542;28;20034;-72
2021/05/17 04:29:57;;;;;;;19.92;12.82;;;;;;;;;;5003759;28;20014;-72
2021/05/17 04:32:23;;;;;;;20.88;12.57;;;;;;;;;;5002171;28;20018;-72
2021/05/17 04:34:49;;;;;;;24.27;13.57;;;;;;;;;;5003786;28;20116;-72
2021/05/17 04:37:15;;;;;;;19.95;13.43;;;;;;;;;;4984248;28;20021;-72
2021/05/17 04:39:41;;;;;;;18.92;13.48;;;;;;;;;;5003115;28;20033;-72
2021/05/17 04:42:07;;;;;;;18.10;12.60;;;;;;;;;;5008568;28;20026;-71
2021/05/17 04:44:33;;;;;;;18.33;13.32;;;;;;;;;;4985675;28;20441;-73
2021/05/17 04:46:59;;;;;;;21.50;13.27;;;;;;;;;;4991470;28;20022;-71
2021/05/17 04:49:25;;;;;;;18.02;13.07;;;;;;;;;;5000317;28;20114;-71
2021/05/17 04:51:51;;;;;;;20.45;13.13;;;;;;;;;;4985823;28;20468;-71
2021/05/17 04:54:17;;;;;;;17.15;13.05;;;;;;;;;;4992763;28;20018;-71
2021/05/17 04:56:43;;;;;;;18.77;14.13;;;;;;;;;;5001898;28;20022;-71
2021/05/17 04:59:09;;;;;;;22.10;14.02;;;;;;;;;;5001929;28;20029;-72
2021/05/17 05:01:35;;;;;;;19.30;14.75;;;;;;;;;;5005904;28;20030;-71
2021/05/17 05:04:01;;;;;;;22.08;14.32;;;;;;;;;;5011523;28;20026;-72
2021/05/17 05:06:27;;;;;;;19.05;13.65;;;;;;;;;;5008396;28;20026;-71
2021/05/17 05:08:52;;;;;;;16.92;12.90;;;;;;;;;;5003498;28;20049;-71
2021/05/17 05:11:18;;;;;;;14.98;11.55;;;;;;;;;;5007423;28;20038;-71
2021/05/17 05:13:44;;;;;;;18.58;11.82;;;;;;;;;;4999143;28;20064;-72
2021/05/17 05:16:10;;;;;;;13.75;10.40;;;;;;;;;;5007049;28;20472;-71
2021/05/17 05:18:36;;;;;;;15.35;10.43;;;;;;;;;;4980826;28;20440;-72
2021/05/17 05:21:02;;;;;;;13.20;9.90;;;;;;;;;;4999285;28;20026;-71
2021/05/17 05:23:28;;;;;;;15.15;9.50;;;;;;;;;;5006026;28;20057;-71
2021/05/17 05:28:27;;;;;;;13.77;8.77;;;;;;;;;;5002383;28;20026;-72
2021/05/17 05:33:25;;;;;;;12.55;8.88;;;;;;;;;;4995138;28;20041;-71
2021/05/17 05:35:51;;;;;;;9.15;7.72;;;;;;;;;;5002232;28;20437;-72
2021/05/17 05:38:17;;;;;;;13.02;7.55;;;;;;;;;;4999431;28;20054;-72
2021/05/17 05:40:43;;;;;;;10.50;7.55;;;;;;;;;;4998680;28;20101;-72
2021/05/17 05:43:09;;;;;;;11.00;7.85;;;;;;;;;;5006310;28;20463;-72
2021/05/17 05:45:43;;;;;;;15.27;8.25;;;;;;;;;;4998652;28;20034;-71
2021/05/17 05:48:09;;;;;;;14.50;8.80;;;;;;;;;;5007729;28;20036;-71
2021/05/17 05:50:37;;;;;;;14.98;9.38;;;;;;;;;;5003409;28;20109;-72
2021/05/17 05:53:03;;;;;;;16.52;8.60;;;;;;;;;;4992691;28;20025;-71
2021/05/17 05:55:29;;;;;;;14.98;8.85;;;;;;;;;;5003042;28;20021;-71
2021/05/17 05:57:56;;;;;;;19.92;9.85;;;;;;;;;;5007243;28;20069;-71
2021/05/17 06:00:23;;;;;;;14.23;8.82;;;;;;;;;;5002704;28;20068;-72
2021/05/17 06:02:49;;;;;;;14.13;9.32;;;;;;;;;;4998348;28;20102;-71
2021/05/17 06:05:15;;;;;;;15.48;10.75;;;;;;;;;;4998538;28;20070;-70
2021/05/17 06:07:41;;;;;;;15.02;9.00;;;;;;;;;;4999917;28;20038;-70
2021/05/17 06:10:09;;;;;;;19.15;10.35;;;;;;;;;;4991583;28;20050;-69
2021/05/17 06:12:37;;;;;;;16.80;9.90;;;;;;;;;;4996866;28;20019;-67
2021/05/17 06:15:04;;;;;;;17.35;9.02;;;;;;;;;;4978455;28;20049;-70
2021/05/17 06:17:31;;;;;;;17.40;9.95;;;;;;;;;;5009279;28;20117;-70
2021/05/17 06:19:57;;;;;;;20.65;10.05;;;;;;;;;;4987899;28;20026;-69
2021/05/17 06:22:28;;;;;;;21.20;10.35;;;;;;;;;;5006643;28;20030;-69
2021/05/17 06:24:55;;;;;;;19.77;12.02;;;;;;;;;;5000155;28;20036;-70
2021/05/17 06:27:21;;;;;;;17.92;11.50;;;;;;;;;;5009445;28;20061;-69
2021/05/17 06:29:47;;;;;;;21.75;11.02;;;;;;;;;;4997403;28;20716;-69
2021/05/17 06:32:15;;;;;;;15.23;10.70;;;;;;;;;;4997265;28;20436;-70
2021/05/17 06:34:41;;;;;;;19.83;10.30;;;;;;;;;;4999520;28;20050;-70
2021/05/17 06:37:08;;;;;;;22.33;12.73;;;;;;;;;;4980317;28;20026;-71
2021/05/17 06:39:34;;;;;;;20.75;11.38;;;;;;;;;;5004659;28;20480;-70
2021/05/17 06:42:00;;;;;;;23.75;11.85;;;;;;;;;;4991803;28;20031;-69
2021/05/17 06:44:26;;;;;;;23.30;11.38;;;;;;;;;;4995477;28;20037;-69
2021/05/17 06:46:52;;;;;;;25.83;10.85;;;;;;;;;;4995218;28;20448;-69
2021/05/17 06:49:18;;;;;;;21.88;12.27;;;;;;;;;;4995112;28;20092;-69
2021/05/17 06:51:45;;;;;;;20.08;10.68;;;;;;;;;;5003156;28;20068;-69
2021/05/17 06:54:14;;;;;;;20.17;9.88;;;;;;;;;;5002068;28;20029;-70
2021/05/17 06:59:12;;;;;;;19.65;10.27;;;;;;;;;;4998705;28;20034;-70
2021/05/17 07:01:38;;;;;;;19.27;11.32;;;;;;;;;;4987026;28;20019;-70
2021/05/17 07:04:04;;;;;;;20.08;10.73;;;;;;;;;;4975883;28;20026;-69
2021/05/17 07:06:34;;;;;;;16.25;10.13;;;;;;;;;;4999970;28;20025;-69
2021/05/17 07:11:53;;;;;;;16.33;10.75;;;;;;;;;;4987922;28;20025;-70
2021/05/17 07:14:19;;;;;;;18.63;9.90;;;;;;;;;;4993524;28;20027;-70
2021/05/17 07:16:45;;;;;;;17.90;9.45;;;;;;;;;;4998144;28;20573;-69
2021/05/17 07:19:11;;;;;;;18.85;9.18;;;;;;;;;;4992483;28;20404;-69
2021/05/17 07:24:22;;;;;;;14.20;9.35;;;;;;;;;;4996470;28;20053;-70
2021/05/17 07:26:49;;;;;;;12.02;7.97;;;;;;;;;;4999582;28;20022;-71
2021/05/17 07:29:15;;;;;;;15.23;8.23;;;;;;;;;;4992135;28;20031;-70
2021/05/17 07:31:41;;;;;;;10.80;6.85;;;;;;;;;;4992992;28;20015;-70
2021/05/17 07:34:07;;;;;;;14.38;7.78;;;;;;;;;;5006459;28;20022;-70
2021/05/17 07:36:33;;;;;;;13.45;7.80;;;;;;;;;;4986181;28;20029;-69
2021/05/17 07:38:59;;;;;;;13.30;7.50;;;;;;;;;;4998384;28;20037;-70
2021/05/17 07:41:25;;;;;;;9.05;6.13;;;;;;;;;;5000825;28;20030;-70
2021/05/17 07:43:51;;;;;;;11.70;6.97;;;;;;;;;;4982843;28;20036;-71
2021/05/17 07:46:18;;;;;;;13.15;6.38;;;;;;;;;;4994992;28;20164;-70
2021/05/17 07:51:29;;;;;;;9.73;5.40;;;;;;;;;;4992232;28;20033;-70
2021/05/17 07:53:55;;;;;;;8.88;5.85;;;;;;;;;;4984060;28;20391;-69
2021/05/17 07:56:20;;;;;;;10.65;5.93;;;;;;;;;;5003160;28;20041;-71
2021/05/17 07:58:46;;;;;;;11.65;5.35;;;;;;;;;;4987230;28;20045;-71
2021/05/17 08:01:12;;;;;;;8.02;5.53;;;;;;;;;;5000841;28;20026;-71
2021/05/17 08:03:39;;;;;;;14.30;6.90;;;;;;;;;;4999094;28;20030;-71
2021/05/17 08:06:06;;;;;;;7.35;5.43;;;;;;;;;;4998716;28;20026;-71
2021/05/17 08:08:32;;;;;;;9.93;5.70;;;;;;;;;;5003236;28;20129;-71
2021/05/17 08:11:00;;;;;;;12.80;6.43;;;;;;;;;;4976155;28;20090;-71
2021/05/17 08:13:26;;;;;;;8.90;6.13;;;;;;;;;;5004535;28;20022;-72
2021/05/17 08:15:52;;;;;;;8.18;5.45;;;;;;;;;;4991978;28;20033;-71
2021/05/17 08:18:18;;;;;;;12.18;6.20;;;;;;;;;;4990823;28;20399;-73
2021/05/17 08:20:44;;;;;;;11.68;6.28;;;;;;;;;;5000385;28;20030;-72
2021/05/17 08:23:15;;;;;;;9.68;6.07;;;;;;;;;;5005794;28;20030;-72
2021/05/17 08:25:41;;;;;;;11.63;6.35;;;;;;;;;;4984775;28;20109;-71
2021/05/17 08:28:07;;;;;;;9.43;6.00;;;;;;;;;;4999012;28;20109;-71
2021/05/17 08:30:41;;;;;;;10.07;5.90;;;;;;;;;;4987120;28;20031;-71
2021/05/17 08:33:07;;;;;;;10.05;6.40;;;;;;;;;;4999600;28;20018;-71
2021/05/17 08:35:33;;;;;;;11.38;6.20;;;;;;;;;;5000216;28;20034;-75
2021/05/17 08:37:59;;;;;;;8.00;6.22;;;;;;;;;;4975025;28;20488;-69
2021/05/17 08:40:26;;;;;;;9.55;5.97;;;;;;;;;;4989534;28;20077;-71
2021/05/17 08:42:53;;;;;;;12.50;6.25;;;;;;;;;;5007141;28;20026;-71
2021/05/17 08:45:19;;;;;;;7.53;5.05;;;;;;;;;;4995774;28;20089;-70
2021/05/17 08:47:45;;;;;;;9.80;5.55;;;;;;;;;;4981913;28;20042;-70
2021/05/17 08:50:11;;;;;;;5.35;4.55;;;;;;;;;;4997839;28;20018;-71
2021/05/17 08:52:42;;;;;;;8.00;4.70;;;;;;;;;;4981644;28;20519;-71
2021/05/17 08:55:09;;;;;;;8.80;4.95;;;;;;;;;;4999618;28;20664;-71
2021/05/17 08:57:35;;;;;;;9.05;6.15;;;;;;;;;;4996542;28;20109;-71
2021/05/17 09:00:01;;;;;;;11.10;6.00;;;;;;;;;;4994016;28;20449;-72
2021/05/17 09:02:28;;;;;;;7.72;6.07;;;;;;;;;;4987289;28;20117;-71
2021/05/17 09:05:12;;;;;;;11.88;6.53;;;;;;;;;;4999059;28;20084;-71
2021/05/17 09:07:42;;;;;;;9.10;5.65;;;;;;;;;;4999011;28;20022;-69
2021/05/17 09:10:37;;;;;;;7.72;6.15;;;;;;;;;;4992488;28;20080;-71
2021/05/17 09:13:11;;;;;;;10.13;6.65;;;;;;;;;;4979531;28;20157;-69
2021/05/17 09:15:41;;;;;;;9.73;6.07;;;;;;;;;;4996168;28;20022;-70
2021/05/17 09:18:10;;;;;;;8.95;6.30;;;;;;;;;;5003448;28;20526;-70
2021/05/17 09:20:37;;;;;;;8.63;6.43;;;;;;;;;;4996574;28;20033;-71
2021/05/17 09:23:20;;;;;;;7.43;6.07;;;;;;;;;;5002152;28;20503;-70
2021/05/17 09:25:59;;;;;;;7.75;5.18;;;;;;;;;;4992308;28;20365;-71
2021/05/17 09:28:36;;;;;;;11.90;6.47;;;;;;;;;;5000804;28;20521;-71
2021/05/17 09:31:05;;;;;;;7.85;5.72;;;;;;;;;;4996253;28;20487;-71
2021/05/17 09:33:38;;;;;;;9.70;6.30;;;;;;;;;;5002494;28;20391;-71
2021/05/17 09:36:10;;;;;;;7.30;4.30;;;;;;;;;;4980535;28;20057;-71
2021/05/17 09:38:36;;;;;;;6.68;4.70;;;;;;;;;;4995734;28;20076;-70
2021/05/17 09:41:08;;;;;;;5.63;4.40;;;;;;;;;;5008338;28;20026;-71
2021/05/17 09:43:34;;;;;;;8.55;5.20;;;;;;;;;;4986210;28;20065;-71
2021/05/17 09:46:01;;;;;;;8.77;3.55;;;;;;;;;;4999009;28;20459;-69
2021/05/17 09:48:29;;;;;;;5.88;2.53;;;;;;;;;;4994542;28;20033;-73
2021/05/17 09:50:58;;;;;;;4.20;3.05;;;;;;;;;;4997215;28;20554;-71
2021/05/17 09:53:25;;;;;;;8.20;3.47;;;;;;;;;;4994539;28;20032;-70
2021/05/17 09:55:51;;;;;;;9.48;4.75;;;;;;;;;;4988790;28;20461;-72
2021/05/17 09:58:27;;;;;;;6.35;4.80;;;;;;;;;;4998986;28;20030;-73
2021/05/17 10:01:06;;;;;;;9.18;4.47;;;;;;;;;;4988613;28;20068;-73
2021/05/17 10:03:37;;;;;;;5.90;4.22;;;;;;;;;;4984115;28;20026;-71
2021/05/17 10:06:03;;;;;;;8.32;4.13;;;;;;;;;;4989132;28;20057;-72
2021/05/17 10:08:29;;;;;;;9.50;3.47;;;;;;;;;;4998060;28;20065;-73
2021/05/17 10:10:55;;;;;;;5.00;3.00;;;;;;;;;;5003407;28;20026;-73
2021/05/17 10:13:21;;;;;;;5.50;3.00;;;;;;;;;;5002392;28;20081;-70
2021/05/17 10:15:48;;;;;;;4.65;3.25;;;;;;;;;;5003897;28;20030;-70
2021/05/17 10:18:15;;;;;;;5.88;3.25;;;;;;;;;;5008008;28;20543;-70
2021/05/17 10:20:41;;;;;;;6.00;2.80;;;;;;;;;;5007688;28;20108;-70
2021/05/17 10:23:07;;;;;;;7.47;3.35;;;;;;;;;;5003733;28;20495;-71
2021/05/17 10:25:35;;;;;;;5.90;3.47;;;;;;;;;;5007407;28;20034;-70
2021/05/17 10:28:06;;;;;;;7.13;4.68;;;;;;;;;;5000136;28;20069;-70
2021/05/17 10:30:33;;;;;;;5.95;4.57;;;;;;;;;;5003085;28;20069;-71
2021/05/17 10:33:00;;;;;;;4.38;3.50;;;;;;;;;;5003287;28;20061;-70
2021/05/17 10:35:52;;;;;;;2.95;1.58;;;;;;;;;;5004839;28;20030;-70
2021/05/17 10:38:47;;;;;;;5.32;1.30;;;;;;;;;;5002913;28;20029;-70
2021/05/17 10:41:22;;;;;;;0.90;0.50;;;;;;;;;;4994605;28;20149;-71
2021/05/17 10:46:35;;;;;;;1.65;0.38;;;;;;;;;;5002522;28;20725;-72
2021/05/17 10:46:47;;;;;;;4.43;0.70;;;;;;;;;;4991866;28;20085;-71
2021/05/17 10:49:32;;;;;;;0.88;0.60;;;;;;;;;;5001508;28;20080;-72
2021/05/17 10:52:07;;;;;;;1.35;0.80;;;;;;;;;;4999535;28;20026;-70
2021/05/17 10:54:37;;;;;;;1.90;0.50;;;;;;;;;;4987893;28;20503;-71
2021/05/17 10:57:21;;;;;;;1.65;0.60;;;;;;;;;;4992576;28;20030;-70
2021/05/17 11:02:42;;;;;;;0.80;0.50;;;;;;;;;;4993579;28;20112;-70
2021/05/17 11:05:10;;;;;;;3.88;1.95;;;;;;;;;;4993620;28;20109;-71
2021/05/17 11:07:47;;;;;;;7.50;2.75;;;;;;;;;;5001671;28;20071;-71
2021/05/17 11:10:13;;;;;;;3.50;2.92;;;;;;;;;;5006826;28;20092;-70
2021/05/17 11:12:39;;;;;;;4.63;2.47;;;;;;;;;;5006329;28;20486;-72
2021/05/17 11:15:06;;;;;;;2.67;1.70;;;;;;;;;;4997702;28;20014;-70
2021/05/17 11:17:52;;;;;;;3.45;1.60;;;;;;;;;;4980011;28;20109;-71
2021/05/17 11:20:37;;;;;;;2.85;1.35;;;;;;;;;;4986831;28;20056;-71
2021/05/17 11:23:03;;;;;;;3.75;1.83;;;;;;;;;;5005847;28;20030;-71
2021/05/17 11:25:49;;;;;;;4.00;1.77;;;;;;;;;;5007576;28;20097;-71
2021/05/17 11:28:16;;;;;;;13.30;2.78;;;;;;;;;;5004796;28;20033;-70
2021/05/17 11:30:43;;;;;;;5.05;3.20;;;;;;;;;;5009432;28;20093;-71
2021/05/17 11:33:13;;;;;;;8.15;3.85;;;;;;;;;;5005411;28;20022;-71
2021/05/17 11:35:58;;;;;;;10.25;5.00;;;;;;;;;;5006496;28;20026;-71
2021/05/17 11:38:24;;;;;;;9.25;5.32;;;;;;;;;;5010938;28;20030;-71
2021/05/17 11:40:51;;;;;;;9.00;6.60;;;;;;;;;;5002112;28;20057;-71
2021/05/17 11:43:17;;;;;;;14.93;6.95;;;;;;;;;;5006480;28;20045;-71
2021/05/17 11:45:44;;;;;;;9.65;7.22;;;;;;;;;;5008000;28;20488;-72
2021/05/17 11:48:10;;;;;;;11.90;8.40;;;;;;;;;;4991101;28;20108;-71
2021/05/17 11:50:36;;;;;;;11.95;7.97;;;;;;;;;;5008028;28;20456;-71
2021/05/17 11:53:02;;;;;;;14.02;8.20;;;;;;;;;;4993941;28;20821;-71
2021/05/17 11:55:28;;;;;;;12.98;8.38;;;;;;;;;;5002287;28;20025;-71
2021/05/17 11:57:55;;;;;;;13.90;7.88;;;;;;;;;;5005096;28;20106;-71
2021/05/17 12:00:24;;;;;;;10.85;7.05;;;;;;;;;;5008107;28;20038;-70
2021/05/17 12:02:52;;;;;;;13.70;8.05;;;;;;;;;;5000642;28;20092;-70
2021/05/17 12:05:18;;;;;;;10.48;7.65;;;;;;;;;;5004290;28;20022;-71
2021/05/17 12:07:49;;;;;;;18.25;7.72;;;;;;;;;;5000665;28;20037;-70
2021/05/17 12:10:16;;;;;;;14.52;8.40;;;;;;;;;;5003688;28;20014;-71
2021/05/17 12:12:42;;;;;;;17.58;9.52;;;;;;;;;;5007209;28;20021;-71
2021/05/17 12:15:11;;;;;;;11.85;8.27;;;;;;;;;;5003456;28;20017;-70
2021/05/17 12:17:37;;;;;;;14.50;9.00;;;;;;;;;;5010296;28;20029;-70
2021/05/17 12:20:07;;;;;;;15.23;8.57;;;;;;;;;;5007113;28;20275;-71
2021/05/17 12:22:39;;;;;;;13.02;9.95;;;;;;;;;;5008285;28;20082;-70
2021/05/17 12:25:24;;;;;;;14.27;9.65;;;;;;;;;;5006092;28;20060;-70
2021/05/17 12:27:51;;;;;;;11.65;8.52;;;;;;;;;;5000568;28;20078;-71
2021/05/17 12:30:18;;;;;;;14.57;9.13;;;;;;;;;;4997990;28;20030;-71
2021/05/17 12:32:43;;;;;;;15.35;10.32;;;;;;;;;;5001598;28;20027;-70
2021/05/17 12:35:14;;;;;;;16.13;9.48;;;;;;;;;;4983145;28;20045;-70
2021/05/17 12:37:39;;;;;;;;;;;;;;;;;;4985846;28;20022;-70
2021/05/17 12:40:25;;;;;;;18.35;10.25;;;;;;;;;;4989797;28;19920;-70
2021/05/17 12:43:00;;;;;;;17.50;12.05;;;;;;;;;;4981032;28;20461;-70
2021/05/17 12:45:26;;;;;;;18.58;11.07;;;;;;;;;;4991306;28;20056;-70
2021/05/17 12:47:52;;;;;;;13.30;9.30;;;;;;;;;;4991354;28;20542;-70
2021/05/17 12:50:18;;;;;;;12.02;9.60;;;;;;;;;;4991709;28;20744;-70
2021/05/17 12:52:45;;;;;;;10.88;7.72;;;;;;;;;;4990650;28;20027;-71
2021/05/17 12:55:13;;;;;;;14.52;9.35;;;;;;;;;;4991142;28;20034;-70
2021/05/17 12:57:58;;;;;;;10.35;7.55;;;;;;;;;;4973044;28;20104;-69
2021/05/17 13:00:33;;;;;;;9.15;5.32;;;;;;;;;;4991109;28;20472;-70
2021/05/17 13:03:02;;;;;;;10.65;6.35;;;;;;;;;;4971713;28;20024;-70
2021/05/17 13:05:28;;;;;;;9.97;7.80;;;;;;;;;;4982309;28;20022;-70
2021/05/17 13:08:02;;;;;;;9.00;6.93;;;;;;;;;;4989062;28;20044;-70
2021/05/17 13:10:28;;;;;;;9.10;7.10;;;;;;;;;;4989652;28;20026;-70
2021/05/17 13:12:55;;;;;;;10.57;6.78;;;;;;;;;;4990291;28;20018;-69
2021/05/17 13:15:22;;;;;;;9.95;6.90;;;;;;;;;;4984202;28;20077;-69
2021/05/17 13:17:55;;;;;;;7.93;6.03;;;;;;;;;;4990780;28;20097;-70
2021/05/17 13:20:22;;;;;;;7.65;4.55;;;;;;;;;;4982668;28;20054;-70
2021/05/17 13:23:08;;;;;;;8.63;4.40;;;;;;;;;;4988795;28;20425;-69
2021/05/17 13:31:06;;;;;;;8.18;4.25;;;;;;;;;;4991748;28;20109;-70
2021/05/17 13:33:35;;;;;;;6.53;3.60;;;;;;;;;;4989317;28;20033;-71
2021/05/17 13:36:13;;;;;;;6.55;3.90;;;;;;;;;;4981710;28;20081;-69
2021/05/17 13:38:40;;;;;;;6.75;3.63;;;;;;;;;;4997635;28;20428;-70
2021/05/17 13:41:08;;;;;;;4.43;2.40;;;;;;;;;;4997782;28;20022;-70
2021/05/17 13:43:34;;;;;;;5.22;3.20;;;;;;;;;;4995785;28;20018;-69
2021/05/17 13:46:01;;;;;;;5.72;3.30;;;;;;;;;;4999350;28;20398;-69
2021/05/17 13:48:27;;;;;;;5.20;3.42;;;;;;;;;;4999340;28;20026;-69
2021/05/17 13:50:53;;;;;;;4.40;3.75;;;;;;;;;;4998704;28;20036;-70
2021/05/17 13:53:19;;;;;;;5.15;3.30;;;;;;;;;;4998961;28;20073;-70
2021/05/17 13:55:46;;;;;;;4.05;2.60;;;;;;;;;;5002484;28;20045;-70
2021/05/17 13:58:12;;;;;;;6.20;2.97;;;;;;;;;;4996780;28;20054;-69
2021/05/17 14:00:38;;;;;;;6.80;2.72;;;;;;;;;;4993615;28;20022;-69
2021/05/17 14:03:04;;;;;;;5.55;2.95;;;;;;;;;;5002435;28;20103;-69
2021/05/17 14:05:30;;;;;;;4.10;1.73;;;;;;;;;;4988776;28;20113;-69
2021/05/17 14:07:56;;;;;;;2.85;1.60;;;;;;;;;;4992276;28;20042;-69
2021/05/17 14:10:22;;;;;;;2.65;1.27;;;;;;;;;;4986981;28;20526;-69
2021/05/17 14:12:48;;;;;;;6.18;1.80;;;;;;;;;;4990281;28;20030;-69
2021/05/17 14:15:16;;;;;;;4.43;1.38;;;;;;;;;;4989791;28;20041;-69
2021/05/17 14:17:42;;;;;;;4.55;1.77;;;;;;;;;;4989690;28;20156;-68
2021/05/17 14:20:13;;;;;;;2.67;1.60;;;;;;;;;;4989780;28;20057;-69
2021/05/17 14:22:39;;;;;;;5.82;1.33;;;;;;;;;;4989503;28;20050;-68
2021/05/17 14:25:09;;;;;;;2.35;0.88;;;;;;;;;;4990242;28;20061;-68
2021/05/17 14:27:35;;;;;;;4.53;0.98;;;;;;;;;;4983334;28;20023;-68
2021/05/17 14:30:02;;;;;;;3.45;1.60;;;;;;;;;;4989448;28;20023;-68
2021/05/17 14:32:28;;;;;;;3.03;1.75;;;;;;;;;;4992250;28;20022;-69
2021/05/17 14:34:54;;;;;;;3.38;1.45;;;;;;;;;;4994264;28;20045;-68
2021/05/17 14:37:20;;;;;;;5.25;2.20;;;;;;;;;;4992609;28;20397;-68
2021/05/17 14:39:46;;;;;;;4.40;1.80;;;;;;;;;;4993458;28;20062;-68
2021/05/17 14:42:12;;;;;;;4.55;1.65;;;;;;;;;;4998950;28;20081;-68
2021/05/17 14:44:38;;;;;;;5.03;1.77;;;;;;;;;;4993853;28;20790;-68
2021/05/17 14:47:04;;;;;;;3.55;1.75;;;;;;;;;;4990187;28;20058;-69
2021/05/17 14:49:30;;;;;;;8.10;2.08;;;;;;;;;;4995654;28;20035;-70
2021/05/17 14:51:57;;;;;;;5.65;2.58;;;;;;;;;;4996443;28;20044;-69
2021/05/17 14:54:23;;;;;;;11.45;2.83;;;;;;;;;;4981222;28;20026;-68
2021/05/17 14:56:50;;;;;;;7.72;2.42;;;;;;;;;;4993066;28;20472;-69
2021/05/17 14:59:16;;;;;;;4.60;2.00;;;;;;;;;;4994911;28;20025;-69
2021/05/17 15:01:42;;;;;;;6.45;2.65;;;;;;;;;;4988000;28;20109;-68
2021/05/17 15:04:08;;;;;;;9.85;4.00;;;;;;;;;;4987132;28;20018;-68
2021/05/17 15:06:35;;;;;;;9.68;3.85;;;;;;;;;;4998749;28;20023;-69
2021/05/17 15:09:01;;;;;;;10.73;3.92;;;;;;;;;;4997148;28;20108;-70
2021/05/17 15:11:27;;;;;;;10.63;3.65;;;;;;;;;;4996206;28;20209;-69